Lawtey, Florida
Current Conditions -  °F | °C
As of 11:15 AM on Wednesday 26 Nov 2014 (Local Time) from K42J Reporting Station
Scattered Clouds Scattered Clouds  
Wind Chill: 52°   Ceiling: Unl
Heat Index: 52°   Visibility: 9mi
Dew Point: 48°   Wind: 9mph
Humidity: 88%   Direction: 330°NNW
Pressure: 30.13"   Gusts: NA
Location:  30.04°N, 82.07°W
Report Text: K42J 261615Z AUTO 33008KT 9SM FEW012 SCT080 11/09 A3013 RMK AO1 TSNO
Loading
Personal Weather Stations






























Interactive Weather Map New forecast layout! Learn more

10-Day Weather Forecast

Advertisements
Track Severe Weather on mobile